Time;durP1;ratioP1;P1;durP2;ratioP2;P2;SDS_P1;SDS_P2;PMS_P1;PMS_P2;Temp;Humidity;BMP_temperature;BMP_pressure;BME280_temperature;BME280_humidity;BME280_pressure;Samples;Min_cycle;Max_cycle;Signal;HPM_P1;HPM_P2
2022/09/10 00:01:10;;;;;;;3.77;1.30;;;;;;;15.85;100.00;100643.16;5033461;28;20466;-72
2022/09/10 00:03:38;;;;;;;3.83;1.57;;;;;;;15.89;100.00;100637.78;5033467;28;20451;-72
2022/09/10 00:06:06;;;;;;;4.40;1.30;;;;;;;15.89;100.00;100638.63;5033432;28;20443;-72
2022/09/10 00:08:33;;;;;;;4.00;1.47;;;;;;;15.84;100.00;100641.53;5033463;28;20475;-72
2022/09/10 00:11:03;;;;;;;4.13;1.40;;;;;;;15.87;100.00;100640.06;5032901;28;20991;-73
2022/09/10 00:13:30;;;;;;;4.27;1.87;;;;;;;15.87;100.00;100638.16;5033366;28;20448;-73
2022/09/10 00:15:58;;;;;;;5.83;1.90;;;;;;;15.86;100.00;100633.03;5035448;28;20443;-78
2022/09/10 00:18:24;;;;;;;4.80;1.67;;;;;;;15.85;100.00;100625.97;5039839;28;20451;-80
2022/09/10 00:20:54;;;;;;;4.10;1.37;;;;;;;15.84;100.00;100630.59;5034234;28;20439;-72
2022/09/10 00:23:22;;;;;;;5.13;1.53;;;;;;;15.82;100.00;100630.16;5033265;28;20504;-72
2022/09/10 00:25:50;;;;;;;7.13;1.47;;;;;;;15.80;100.00;100629.69;5033083;28;20437;-71
2022/09/10 00:28:17;;;;;;;3.43;1.30;;;;;;;15.76;100.00;100636.97;5033286;28;20454;-71
2022/09/10 00:30:46;;;;;;;4.27;1.30;;;;;;;15.71;100.00;100639.88;5033139;28;20483;-72
2022/09/10 00:33:14;;;;;;;10.03;1.47;;;;;;;15.70;100.00;100632.84;5033142;28;20446;-71
2022/09/10 00:35:41;;;;;;;4.07;1.73;;;;;;;15.69;100.00;100630.44;5033369;28;20493;-70
2022/09/10 00:38:10;;;;;;;3.90;1.20;;;;;;;15.65;100.00;100633.03;5032792;28;20971;-71
2022/09/10 00:40:38;;;;;;;6.03;1.60;;;;;;;15.61;100.00;100621.16;5033150;28;20447;-70
2022/09/10 00:43:11;;;;;;;3.57;1.30;;;;;;;15.61;100.00;100626.63;5033032;28;20450;-72
2022/09/10 00:45:38;;;;;;;4.80;1.70;;;;;;;15.59;100.00;100631.63;5032761;28;20443;-71
2022/09/10 00:48:10;;;;;;;3.20;1.23;;;;;;;15.58;100.00;100630.00;5033059;28;20452;-71
2022/09/10 00:50:41;;;;;;;6.00;1.63;;;;;;;15.54;100.00;100621.69;5033029;28;20474;-71
2022/09/10 00:53:14;;;;;;;3.63;1.47;;;;;;;15.52;100.00;100628.63;5033023;28;20436;-71
2022/09/10 00:55:43;;;;;;;3.77;1.20;;;;;;;15.52;100.00;100623.94;5033092;28;20485;-70
2022/09/10 00:58:13;;;;;;;3.50;1.17;;;;;;;15.51;100.00;100635.22;5032966;28;20447;-71
2022/09/10 01:00:40;;;;;;;5.10;1.50;;;;;;;15.52;100.00;100631.34;5032587;28;20932;-71
2022/09/10 01:03:10;;;;;;;3.60;1.23;;;;;;;15.46;100.00;100632.69;5032977;28;20479;-71
2022/09/10 01:05:37;;;;;;;3.40;1.00;;;;;;;15.39;100.00;100638.66;5032651;28;20438;-71
2022/09/10 01:08:04;;;;;;;3.43;1.10;;;;;;;15.39;100.00;100635.94;5032904;28;20519;-72
2022/09/10 01:10:42;;;;;;;7.47;1.93;;;;;;;15.36;100.00;100631.94;5032473;28;20906;-71
2022/09/10 01:13:29;;;;;;;3.90;1.50;;;;;;;15.34;100.00;100633.41;5032773;28;20427;-71
2022/09/10 01:16:04;;;;;;;4.90;1.40;;;;;;;15.32;100.00;100636.47;5032810;28;20419;-70
2022/09/10 01:18:38;;;;;;;4.30;1.30;;;;;;;15.33;100.00;100638.06;5032768;28;20431;-71
2022/09/10 01:21:12;;;;;;;7.17;1.43;;;;;;;15.24;100.00;100637.31;5032873;28;20508;-71
2022/09/10 01:24:12;;;;;;;3.77;1.17;;;;;;;15.25;100.00;100635.38;5032417;28;21003;-71
2022/09/10 01:27:15;;;;;;;5.13;1.63;;;;;;;15.24;100.00;100634.59;5032660;28;20471;-70
2022/09/10 01:29:48;;;;;;;3.80;1.50;;;;;;;15.20;100.00;100630.94;5032667;28;20423;-70
2022/09/10 01:32:21;;;;;;;4.10;1.50;;;;;;;15.22;100.00;100636.03;5034368;28;20463;-70
2022/09/10 01:34:54;;;;;;;5.47;1.40;;;;;;;15.16;100.00;100632.72;5036177;28;20478;-71
2022/09/10 01:37:26;;;;;;;3.83;1.30;;;;;;;15.13;100.00;100634.16;5036195;28;20470;-70
2022/09/10 01:39:54;;;;;;;4.40;1.50;;;;;;;15.09;100.00;100633.22;5036180;28;20526;-70
2022/09/10 01:42:25;;;;;;;4.17;1.47;;;;;;;15.08;100.00;100633.56;5035909;28;20462;-71
2022/09/10 01:44:55;;;;;;;3.97;1.40;;;;;;;15.01;100.00;100627.84;5036289;28;20473;-70
2022/09/10 01:47:37;;;;;;;4.20;2.03;;;;;;;15.00;100.00;100634.41;5035964;28;20454;-71
2022/09/10 01:50:16;;;;;;;4.80;1.50;;;;;;;14.97;100.00;100630.44;5036341;28;20467;-72
2022/09/10 01:52:59;;;;;;;5.57;1.23;;;;;;;14.98;100.00;100642.94;5035517;28;20483;-70
2022/09/10 01:55:36;;;;;;;4.20;1.40;;;;;;;14.94;100.00;100642.00;5035803;28;20481;-70
2022/09/10 01:58:12;;;;;;;5.07;1.53;;;;;;;14.92;100.00;100637.97;5035801;28;20450;-71
2022/09/10 02:00:48;;;;;;;3.87;1.50;;;;;;;14.87;100.00;100636.22;5035608;28;20474;-71
2022/09/10 02:03:18;;;;;;;3.93;1.53;;;;;;;14.89;100.00;100634.78;5035463;28;20428;-71
2022/09/10 02:05:47;;;;;;;3.70;1.30;;;;;;;14.88;100.00;100630.47;5035664;28;20796;-70
2022/09/10 02:08:19;;;;;;;3.73;1.27;;;;;;;14.83;100.00;100636.13;5035531;28;20530;-71
2022/09/10 02:10:54;;;;;;;3.30;1.03;;;;;;;14.83;100.00;100641.56;5035432;28;20471;-71
2022/09/10 02:13:21;;;;;;;3.90;1.50;;;;;;;14.84;100.00;100637.72;5035479;28;20477;-71
2022/09/10 02:15:50;;;;;;;3.50;1.30;;;;;;;14.86;100.00;100631.91;5035408;28;20493;-71
2022/09/10 02:18:17;;;;;;;4.90;1.80;;;;;;;14.86;100.00;100629.97;5035004;28;20944;-71
2022/09/10 02:20:44;;;;;;;3.47;1.20;;;;;;;14.88;100.00;100635.94;5035312;28;20439;-71
2022/09/10 02:23:12;;;;;;;3.60;1.40;;;;;;;14.86;100.00;100640.09;5035111;28;20439;-70
2022/09/10 02:25:39;;;;;;;6.10;1.50;;;;;;;14.83;100.00;100644.28;5035229;28;20439;-71
2022/09/10 02:28:05;;;;;;;4.47;1.33;;;;;;;14.79;100.00;100646.06;5035165;28;20443;-70
2022/09/10 02:30:32;;;;;;;4.03;1.40;;;;;;;14.77;100.00;100644.78;5035119;28;20536;-71
2022/09/10 02:32:59;;;;;;;4.03;1.50;;;;;;;14.69;100.00;100654.59;5035023;28;21041;-71
2022/09/10 02:35:27;;;;;;;4.40;1.53;;;;;;;14.70;100.00;100653.50;5035133;28;20446;-70
2022/09/10 02:37:53;;;;;;;3.83;1.33;;;;;;;14.74;100.00;100650.88;5034908;28;20905;-70
2022/09/10 02:40:20;;;;;;;4.80;1.43;;;;;;;14.72;100.00;100656.69;5034972;28;20442;-72
2022/09/10 02:42:46;;;;;;;6.73;1.97;;;;;;;14.73;100.00;100658.28;5033855;28;20991;-70
2022/09/10 02:45:14;;;;;;;3.63;1.37;;;;;;;14.70;100.00;100655.41;5034631;28;20459;-70
2022/09/10 02:47:40;;;;;;;4.30;1.57;;;;;;;14.70;100.00;100653.50;5034725;28;20439;-70
2022/09/10 02:50:10;;;;;;;4.20;1.37;;;;;;;14.69;100.00;100657.31;5034559;28;20447;-71
2022/09/10 02:52:36;;;;;;;3.80;1.53;;;;;;;14.55;100.00;100660.25;5034332;28;20471;-70
2022/09/10 02:55:03;;;;;;;4.27;1.40;;;;;;;14.56;100.00;100658.34;5034622;28;20493;-71
2022/09/10 02:57:30;;;;;;;3.70;1.20;;;;;;;14.55;100.00;100651.28;5034662;28;20443;-70
2022/09/10 02:59:56;;;;;;;3.70;1.20;;;;;;;14.49;100.00;100656.13;5034582;28;20443;-70
2022/09/10 03:02:23;;;;;;;5.43;1.20;;;;;;;14.42;100.00;100650.34;5034476;28;20513;-70
2022/09/10 03:04:49;;;;;;;3.93;1.50;;;;;;;14.41;100.00;100650.66;5034628;28;20451;-74
2022/09/10 03:07:19;;;;;;;3.70;1.20;;;;;;;14.37;100.00;100654.03;5034544;28;20451;-70
2022/09/10 03:09:45;;;;;;;5.90;1.70;;;;;;;14.32;100.00;100654.22;5034504;28;20443;-70
2022/09/10 03:12:12;;;;;;;4.70;1.40;;;;;;;14.28;100.00;100645.09;5034160;28;20498;-69
2022/09/10 03:14:38;;;;;;;4.30;1.30;;;;;;;14.23;100.00;100650.72;5034163;28;20811;-70
2022/09/10 03:17:05;;;;;;;4.23;1.20;;;;;;;14.21;100.00;100652.97;5034212;28;20447;-70
2022/09/10 03:19:31;;;;;;;3.50;1.10;;;;;;;14.21;100.00;100647.53;5034175;28;20513;-69
2022/09/10 03:21:58;;;;;;;4.37;1.77;;;;;;;14.11;100.00;100647.84;5034015;28;20471;-69
2022/09/10 03:24:26;;;;;;;3.83;1.67;;;;;;;14.04;100.00;100648.34;5034055;28;20442;-69
2022/09/10 03:26:52;;;;;;;3.20;1.10;;;;;;;14.05;100.00;100651.88;5034076;28;20502;-69
2022/09/10 03:29:19;;;;;;;4.40;2.10;;;;;;;13.97;100.00;100645.31;5034004;28;20459;-69
2022/09/10 03:31:46;;;;;;;5.43;1.90;;;;;;;13.99;100.00;100656.69;5033884;28;20490;-70
2022/09/10 03:34:13;;;;;;;5.10;1.67;;;;;;;13.97;100.00;100650.75;5033872;28;20447;-69
2022/09/10 03:36:40;;;;;;;5.60;1.37;;;;;;;13.93;100.00;100649.00;5033900;28;20439;-69
2022/09/10 03:39:06;;;;;;;3.80;1.37;;;;;;;13.91;100.00;100649.31;5033510;28;21010;-70
2022/09/10 03:41:34;;;;;;;4.70;1.33;;;;;;;13.87;100.00;100643.72;5033944;28;20459;-70
2022/09/10 03:44:01;;;;;;;3.67;1.20;;;;;;;13.83;100.00;100645.47;5033688;28;20497;-71
2022/09/10 03:46:27;;;;;;;3.80;1.10;;;;;;;13.78;100.00;100645.66;5033680;28;20513;-69
2022/09/10 03:48:54;;;;;;;3.73;1.30;;;;;;;13.71;100.00;100644.50;5033785;28;20457;-70
2022/09/10 03:51:20;;;;;;;4.50;1.40;;;;;;;13.65;100.00;100637.63;5033199;28;20487;-69
2022/09/10 03:53:47;;;;;;;6.03;1.43;;;;;;;13.55;100.00;100641.50;5033305;28;20428;-70
2022/09/10 03:56:14;;;;;;;3.87;1.30;;;;;;;13.59;100.00;100636.97;5033076;28;20809;-69
2022/09/10 03:58:41;;;;;;;4.17;1.23;;;;;;;13.55;100.00;100630.59;5033576;28;20829;-69
2022/09/10 04:01:08;;;;;;;4.07;1.83;;;;;;;13.50;100.00;100631.56;5033033;28;20969;-69
2022/09/10 04:03:34;;;;;;;3.80;1.40;;;;;;;13.43;100.00;100636.66;5033482;28;20443;-70
2022/09/10 04:06:01;;;;;;;8.50;1.70;;;;;;;13.49;100.00;100634.56;5033118;28;21015;-70
2022/09/10 04:08:27;;;;;;;4.23;1.37;;;;;;;13.49;100.00;100642.75;5033375;28;20489;-71
2022/09/10 04:10:55;;;;;;;6.80;1.40;;;;;;;13.40;100.00;100631.84;5032956;28;21003;-70
2022/09/10 04:13:22;;;;;;;5.40;1.67;;;;;;;13.43;100.00;100642.09;5033078;28;20949;-70
2022/09/10 04:15:50;;;;;;;5.00;1.37;;;;;;;13.41;100.00;100647.03;5033122;28;20447;-70
2022/09/10 04:18:16;;;;;;;4.77;1.70;;;;;;;13.38;100.00;100643.06;5033260;28;20447;-71
2022/09/10 04:20:46;;;;;;;4.30;1.43;;;;;;;13.41;100.00;100640.81;5032831;28;20965;-70
2022/09/10 04:23:12;;;;;;;3.70;1.37;;;;;;;13.38;100.00;100642.25;5033230;28;20443;-70
2022/09/10 04:25:39;;;;;;;4.57;1.80;;;;;;;13.29;100.00;100644.16;5033286;28;20443;-73
2022/09/10 04:28:05;;;;;;;5.97;1.80;;;;;;;13.35;100.00;100635.53;5033354;28;20443;-76
2022/09/10 04:30:32;;;;;;;4.67;1.80;;;;;;;13.44;100.00;100630.09;5033851;28;20447;-70
2022/09/10 04:32:59;;;;;;;5.90;1.53;;;;;;;13.41;100.00;100632.66;5033250;28;20470;-71
2022/09/10 04:35:26;;;;;;;4.23;1.73;;;;;;;13.37;100.00;100629.78;5033135;28;20439;-69
2022/09/10 04:37:52;;;;;;;6.97;1.57;;;;;;;13.38;100.00;100634.91;5033152;28;20504;-69
2022/09/10 04:40:19;;;;;;;3.77;1.30;;;;;;;13.37;100.00;100638.75;5033070;28;20451;-70
2022/09/10 04:42:45;;;;;;;4.00;1.70;;;;;;;13.37;100.00;100638.75;5032729;28;20451;-69
2022/09/10 04:45:12;;;;;;;4.10;1.50;;;;;;;13.31;100.00;100641.91;5033023;28;20450;-69
2022/09/10 04:47:38;;;;;;;5.57;2.13;;;;;;;13.23;100.00;100646.22;5032753;28;20447;-69
2022/09/10 04:50:07;;;;;;;4.17;1.57;;;;;;;13.09;100.00;100645.53;5032766;28;20900;-71
2022/09/10 04:52:34;;;;;;;4.47;2.10;;;;;;;13.13;100.00;100649.22;5032442;28;21062;-70
2022/09/10 04:55:01;;;;;;;5.30;1.70;;;;;;;13.17;100.00;100647.47;5032756;28;20450;-70
2022/09/10 04:57:27;;;;;;;3.87;1.20;;;;;;;13.22;100.00;100658.22;5033025;28;20446;-71
2022/09/10 04:59:54;;;;;;;3.90;1.20;;;;;;;13.22;100.00;100647.34;5032969;28;20549;-70
2022/09/10 05:02:21;;;;;;;6.50;1.60;;;;;;;13.23;100.00;100650.88;5032785;28;20894;-70
2022/09/10 05:04:47;;;;;;;3.53;1.40;;;;;;;13.28;100.00;100659.69;5032797;28;20442;-71
2022/09/10 05:07:15;;;;;;;3.73;1.40;;;;;;;13.21;100.00;100655.81;5034334;28;20949;-70
2022/09/10 05:09:41;;;;;;;4.37;1.63;;;;;;;13.22;100.00;100654.69;5036734;28;20496;-70
2022/09/10 05:12:08;;;;;;;9.03;1.43;;;;;;;13.22;100.00;100650.06;5036474;28;20490;-70
2022/09/10 05:14:34;;;;;;;6.47;1.40;;;;;;;13.22;100.00;100655.50;5036664;28;20911;-71
2022/09/10 05:17:02;;;;;;;4.13;1.73;;;;;;;13.22;100.00;100662.84;5036138;28;20963;-71
2022/09/10 05:19:28;;;;;;;4.97;1.30;;;;;;;13.22;100.00;100658.22;5036127;28;20443;-71
2022/09/10 05:21:54;;;;;;;4.43;1.70;;;;;;;13.22;100.00;100655.50;5036461;28;20459;-71
2022/09/10 05:24:22;;;;;;;7.00;1.70;;;;;;;13.24;100.00;100649.75;5036448;28;20454;-74
2022/09/10 05:26:49;;;;;;;3.63;1.40;;;;;;;13.29;100.00;100647.69;5036386;28;20485;-72
2022/09/10 05:29:15;;;;;;;3.87;1.33;;;;;;;13.35;100.00;100640.97;5036444;28;20455;-72
2022/09/10 05:31:43;;;;;;;4.30;1.23;;;;;;;13.42;100.00;100647.88;5036401;28;20866;-72
2022/09/10 05:34:09;;;;;;;3.40;1.07;;;;;;;13.52;100.00;100653.00;5036274;28;20987;-71
2022/09/10 05:36:36;;;;;;;4.00;1.50;;;;;;;13.60;100.00;100653.00;5036300;28;20459;-71
2022/09/10 05:39:04;;;;;;;4.70;1.50;;;;;;;13.70;100.00;100643.72;5036207;28;20446;-71
2022/09/10 05:41:31;;;;;;;4.07;1.40;;;;;;;13.78;100.00;100653.81;5036660;28;20467;-71
2022/09/10 05:43:59;;;;;;;4.23;1.13;;;;;;;13.89;100.00;100652.34;5036031;28;20490;-71
2022/09/10 05:46:25;;;;;;;5.27;1.57;;;;;;;13.99;100.00;100648.50;5035982;28;20443;-71
2022/09/10 05:48:52;;;;;;;4.70;1.80;;;;;;;14.08;100.00;100651.22;5036125;28;20447;-72
2022/09/10 05:51:19;;;;;;;7.50;1.47;;;;;;;14.19;100.00;100652.47;5035719;28;20847;-71
2022/09/10 05:53:45;;;;;;;4.50;1.80;;;;;;;14.29;100.00;100649.41;5037318;28;20454;-71
2022/09/10 05:56:12;;;;;;;3.93;1.60;;;;;;;14.39;100.00;100654.53;5035758;28;20500;-71
2022/09/10 05:58:40;;;;;;;4.70;1.67;;;;;;;14.51;100.00;100656.59;5036085;28;20439;-71
2022/09/10 06:01:06;;;;;;;4.03;1.60;;;;;;;14.61;100.00;100650.81;5035612;28;20456;-72
2022/09/10 06:03:33;;;;;;;6.30;1.57;;;;;;;14.71;100.00;100657.81;5035766;28;20497;-72
2022/09/10 06:05:59;;;;;;;7.93;1.50;;;;;;;14.82;100.00;100660.97;5035704;28;20458;-72
2022/09/10 06:08:26;;;;;;;5.00;1.67;;;;;;;14.91;100.00;100658.19;5035723;28;20451;-72
2022/09/10 06:10:57;;;;;;;4.93;1.70;;;;;;;15.00;100.00;100667.16;5035763;28;20859;-71
2022/09/10 06:13:24;;;;;;;3.50;1.13;;;;;;;15.07;100.00;100667.44;5035419;28;20961;-72
2022/09/10 06:15:51;;;;;;;5.80;1.90;;;;;;;15.18;100.00;100679.56;5035232;28;20944;-71
2022/09/10 06:18:20;;;;;;;3.80;1.40;;;;;;;15.25;100.00;100679.84;5035508;28;20497;-71
2022/09/10 06:20:47;;;;;;;5.40;1.50;;;;;;;15.32;100.00;100682.88;5035373;28;20451;-71
2022/09/10 06:23:15;;;;;;;3.60;1.20;;;;;;;15.36;100.00;100689.28;5035470;28;20455;-71
2022/09/10 06:25:41;;;;;;;5.87;2.00;;;;;;;15.49;100.00;100695.59;5035356;28;20530;-72
2022/09/10 06:28:08;;;;;;;3.47;1.30;;;;;;;15.57;100.00;100697.47;5035342;28;20482;-72
2022/09/10 06:30:34;;;;;;;4.53;1.33;;;;;;;15.68;100.00;100700.66;5035130;28;20443;-72
2022/09/10 06:33:02;;;;;;;4.17;1.27;;;;;;;15.79;100.00;100690.91;5035074;28;20483;-73
2022/09/10 06:35:30;;;;;;;3.73;1.20;;;;;;;15.86;100.00;100690.38;5035184;28;20442;-72
2022/09/10 06:37:57;;;;;;;4.70;1.10;;;;;;;15.92;100.00;100696.44;5035092;28;20451;-72
2022/09/10 06:40:25;;;;;;;6.70;1.40;;;;;;;15.99;100.00;100699.44;5035015;28;20447;-72
2022/09/10 06:42:51;;;;;;;4.57;1.07;;;;;;;16.03;99.89;100692.97;5035284;28;20844;-71
2022/09/10 06:45:18;;;;;;;4.47;1.23;;;;;;;16.10;99.90;100690.47;5035020;28;20495;-72
2022/09/10 06:47:44;;;;;;;3.53;1.27;;;;;;;16.13;100.00;100694.50;5035131;28;20447;-72
2022/09/10 06:50:12;;;;;;;3.97;1.30;;;;;;;16.24;98.72;100695.66;5034838;28;20446;-70
2022/09/10 06:52:38;;;;;;;3.20;1.00;;;;;;;16.28;98.29;100695.78;5034310;28;20509;-70
2022/09/10 06:55:06;;;;;;;4.03;1.30;;;;;;;16.35;98.08;100699.59;5034914;28;20447;-71
2022/09/10 06:57:32;;;;;;;3.90;1.03;;;;;;;16.42;97.91;100703.69;5034693;28;20442;-68
2022/09/10 06:59:59;;;;;;;3.40;1.13;;;;;;;16.50;97.26;100705.53;5034626;28;20443;-70
2022/09/10 07:02:26;;;;;;;4.10;1.43;;;;;;;16.57;96.47;100709.31;5035785;28;20520;-77
2022/09/10 07:04:52;;;;;;;3.47;1.27;;;;;;;16.63;96.51;100705.22;5035602;28;20446;-68
2022/09/10 07:07:20;;;;;;;4.30;1.23;;;;;;;16.70;95.33;100704.69;5034458;28;20451;-70
2022/09/10 07:09:47;;;;;;;3.53;1.00;;;;;;;16.75;95.74;100701.75;5034492;28;20446;-71
2022/09/10 07:12:13;;;;;;;3.50;0.97;;;;;;;16.84;94.87;100698.91;5034218;28;20486;-71
2022/09/10 07:14:40;;;;;;;2.90;0.70;;;;;;;16.86;94.89;100696.63;5034381;28;20542;-70
2022/09/10 07:17:06;;;;;;;3.50;0.93;;;;;;;16.93;95.11;100696.06;5034359;28;20525;-70
2022/09/10 07:19:35;;;;;;;4.67;0.93;;;;;;;17.04;94.09;100699.94;5034314;28;20444;-70
2022/09/10 07:22:02;;;;;;;3.50;1.10;;;;;;;17.07;93.79;100702.81;5034052;28;20463;-70
2022/09/10 07:24:29;;;;;;;3.20;0.80;;;;;;;17.15;93.26;100701.91;5033840;28;21015;-70
2022/09/10 07:26:56;;;;;;;3.43;1.07;;;;;;;17.22;92.92;100697.78;5034136;28;20833;-70
2022/09/10 07:29:23;;;;;;;4.10;1.07;;;;;;;17.25;93.14;100697.91;5033557;28;20964;-70
2022/09/10 07:31:49;;;;;;;3.77;1.20;;;;;;;17.32;92.33;100692.66;5033766;28;20475;-70
2022/09/10 07:34:16;;;;;;;4.13;0.97;;;;;;;17.39;92.11;100701.06;5033993;28;20447;-71
2022/09/10 07:36:42;;;;;;;3.30;1.00;;;;;;;17.46;92.07;100695.03;5033816;28;20455;-72
2022/09/10 07:39:10;;;;;;;3.97;1.00;;;;;;;17.52;92.33;100701.06;5033907;28;20493;-71
2022/09/10 07:41:37;;;;;;;7.50;1.00;;;;;;;17.60;91.85;100697.41;5033524;28;21038;-71
2022/09/10 07:44:04;;;;;;;7.03;1.00;;;;;;;17.63;91.27;100699.47;5033699;28;20505;-72
2022/09/10 07:46:31;;;;;;;5.60;0.93;;;;;;;17.75;91.37;100699.47;5033479;28;20440;-72
2022/09/10 07:48:59;;;;;;;3.47;0.80;;;;;;;17.87;90.89;100702.16;5033143;28;20451;-71
2022/09/10 07:51:27;;;;;;;3.57;1.17;;;;;;;17.96;89.24;100706.69;5032873;28;20494;-72
2022/09/10 07:53:54;;;;;;;4.30;0.80;;;;;;;17.98;89.22;100696.19;5033331;28;20534;-73
2022/09/10 07:56:22;;;;;;;4.20;1.10;;;;;;;18.09;89.35;100702.75;5033148;28;20458;-69
2022/09/10 07:58:51;;;;;;;3.23;0.87;;;;;;;18.13;89.14;100703.66;5032925;28;20471;-69
2022/09/10 08:01:19;;;;;;;2.93;0.77;;;;;;;18.25;88.74;100709.09;5032746;28;20550;-68
2022/09/10 08:03:45;;;;;;;3.53;1.00;;;;;;;18.32;87.27;100708.47;5033036;28;20439;-69
2022/09/10 08:06:12;;;;;;;4.13;1.07;;;;;;;18.40;86.51;100722.03;5032691;28;20439;-69
2022/09/10 08:08:39;;;;;;;4.33;1.30;;;;;;;18.47;85.77;100717.91;5032792;28;20475;-70
2022/09/10 08:11:07;;;;;;;3.20;0.80;;;;;;;18.54;85.04;100723.56;5032620;28;20451;-69
2022/09/10 08:13:36;;;;;;;5.37;0.83;;;;;;;18.62;85.17;100725.34;5032374;28;20479;-69
2022/09/10 08:16:06;;;;;;;3.80;1.00;;;;;;;18.72;84.29;100726.81;5032351;28;20936;-70
2022/09/10 08:18:34;;;;;;;9.57;1.30;;;;;;;18.75;84.43;100729.66;5032579;28;20904;-72
2022/09/10 08:21:00;;;;;;;3.40;1.00;;;;;;;18.79;83.57;100730.53;5032681;28;20485;-71
2022/09/10 08:23:27;;;;;;;5.23;0.83;;;;;;;18.73;82.75;100731.97;5032647;28;20447;-69
2022/09/10 08:25:55;;;;;;;6.07;1.43;;;;;;;18.78;84.12;100728.97;5032136;28;20546;-68
2022/09/10 08:28:21;;;;;;;2.90;0.67;;;;;;;18.92;82.76;100733.22;5032551;28;20508;-68
2022/09/10 08:30:56;;;;;;;3.10;0.70;;;;;;;18.96;82.46;100725.88;5032730;28;20525;-69
2022/09/10 08:33:24;;;;;;;3.50;0.80;;;;;;;19.04;82.70;100724.91;5032172;28;20470;-68
2022/09/10 08:35:56;;;;;;;3.60;0.70;;;;;;;19.11;82.24;100736.03;5032471;28;20520;-67
2022/09/10 08:38:24;;;;;;;4.83;0.80;;;;;;;19.16;81.15;100733.81;5032446;28;20475;-68
2022/09/10 08:40:51;;;;;;;2.80;0.50;;;;;;;19.20;81.72;100728.41;5032423;28;20442;-68
2022/09/10 08:43:23;;;;;;;2.90;0.70;;;;;;;19.29;79.64;100730.97;5036336;28;20530;-68
2022/09/10 08:45:51;;;;;;;3.00;0.70;;;;;;;19.27;79.84;100734.09;5036404;28;20431;-68
2022/09/10 08:48:21;;;;;;;3.10;0.80;;;;;;;19.28;78.95;100730.19;5036194;28;20478;-68
2022/09/10 08:50:53;;;;;;;3.37;0.80;;;;;;;19.32;79.81;100733.00;5035947;28;20451;-68
2022/09/10 08:53:25;;;;;;;3.10;0.80;;;;;;;19.41;79.65;100731.66;5036104;28;20479;-68
2022/09/10 08:55:56;;;;;;;3.33;0.87;;;;;;;19.46;80.10;100735.28;5036193;28;20431;-67
2022/09/10 08:58:28;;;;;;;3.53;1.00;;;;;;;19.48;78.74;100732.97;5036046;28;20437;-69
2022/09/10 09:01:01;;;;;;;3.27;0.83;;;;;;;19.49;79.61;100727.13;5035703;28;20916;-69
2022/09/10 09:03:33;;;;;;;3.50;1.00;;;;;;;19.56;81.45;100735.53;5035909;28;20427;-69
2022/09/10 09:06:02;;;;;;;4.80;0.90;;;;;;;19.65;78.62;100741.66;5035928;28;20493;-68
2022/09/10 09:08:33;;;;;;;2.70;0.60;;;;;;;19.65;77.97;100738.91;5035780;28;20446;-68
2022/09/10 09:11:09;;;;;;;3.20;0.90;;;;;;;19.69;78.35;100738.97;5035518;28;21023;-68
2022/09/10 09:14:06;;;;;;;3.80;0.73;;;;;;;19.69;79.02;100738.19;5035941;28;20463;-69
2022/09/10 09:16:49;;;;;;;3.10;0.93;;;;;;;19.86;80.05;100744.06;5030585;28;20972;-69
2022/09/10 09:19:25;;;;;;;2.80;0.60;;;;;;;19.99;77.73;100744.75;5035755;28;20461;-69
2022/09/10 09:21:54;;;;;;;3.00;0.80;;;;;;;20.14;77.93;100745.81;5035603;28;20550;-68
2022/09/10 09:24:24;;;;;;;2.80;0.70;;;;;;;20.35;77.38;100745.47;5035584;28;20438;-69
2022/09/10 09:26:54;;;;;;;2.80;0.63;;;;;;;20.42;76.78;100743.66;5035664;28;20446;-69
2022/09/10 09:29:27;;;;;;;3.33;0.70;;;;;;;20.41;75.83;100739.31;5035216;28;20896;-68
2022/09/10 09:31:57;;;;;;;2.97;0.57;;;;;;;20.53;74.90;100734.81;5035409;28;20466;-69
2022/09/10 09:34:31;;;;;;;3.30;0.80;;;;;;;20.57;75.35;100739.22;5035407;28;20436;-69
2022/09/10 09:37:03;;;;;;;3.13;0.70;;;;;;;20.59;75.19;100736.94;5035504;28;20427;-69
2022/09/10 09:39:37;;;;;;;4.20;0.80;;;;;;;20.51;72.74;100735.19;5035631;28;20447;-69
2022/09/10 09:42:11;;;;;;;8.40;1.20;;;;;;;20.65;73.23;100729.94;5035452;28;21005;-70
2022/09/10 09:44:44;;;;;;;3.27;0.80;;;;;;;20.81;72.99;100729.84;5036845;28;20432;-70
2022/09/10 09:47:11;;;;;;;3.00;0.80;;;;;;;20.95;72.45;100729.28;5035348;28;20466;-70
2022/09/10 09:49:38;;;;;;;3.07;0.73;;;;;;;20.81;72.77;100729.06;5035662;28;20442;-70
2022/09/10 09:52:18;;;;;;;3.20;0.93;;;;;;;20.85;72.25;100719.69;5034359;28;21062;-71
2022/09/10 09:54:49;;;;;;;2.90;0.77;;;;;;;20.90;73.33;100729.59;5035378;28;20427;-70
2022/09/10 09:57:18;;;;;;;3.33;0.87;;;;;;;20.92;72.86;100732.78;5035329;28;20458;-71
2022/09/10 09:59:44;;;;;;;3.17;0.73;;;;;;;20.96;73.83;100728.13;5034921;28;20928;-71
2022/09/10 10:02:13;;;;;;;2.83;0.60;;;;;;;20.99;73.30;100726.59;5035134;28;20479;-70
2022/09/10 10:04:52;;;;;;;3.67;0.80;;;;;;;20.94;74.32;100732.41;5035271;28;20439;-72
2022/09/10 10:07:26;;;;;;;3.47;1.03;;;;;;;20.86;74.48;100721.28;5035108;28;20441;-70
2022/09/10 10:09:53;;;;;;;2.90;0.57;;;;;;;20.78;76.04;100722.31;5034993;28;20464;-71
2022/09/10 10:12:22;;;;;;;6.70;0.80;;;;;;;20.77;74.93;100719.94;5034665;28;20471;-71
2022/09/10 10:14:48;;;;;;;2.80;0.60;;;;;;;20.78;74.48;100716.81;5034798;28;20806;-72
2022/09/10 10:17:31;;;;;;;3.37;1.27;;;;;;;20.60;73.41;100726.72;5034933;28;20457;-70
2022/09/10 10:20:01;;;;;;;3.50;0.80;;;;;;;20.58;73.05;100709.75;5035310;28;20423;-70
2022/09/10 10:22:30;;;;;;;3.20;0.57;;;;;;;20.84;73.67;100718.09;5035006;28;20470;-71
2022/09/10 10:24:59;;;;;;;2.90;0.80;;;;;;;21.03;72.76;100714.47;5034872;28;20477;-71
2022/09/10 10:27:31;;;;;;;3.00;0.80;;;;;;;20.98;71.88;100717.53;5034628;28;20513;-72
2022/09/10 10:30:01;;;;;;;2.80;0.50;;;;;;;20.91;72.63;100720.97;5034307;28;20876;-72
2022/09/10 10:32:44;;;;;;;3.17;0.53;;;;;;;20.89;72.01;100723.31;5034781;28;20478;-71
2022/09/10 10:35:31;;;;;;;3.57;0.70;;;;;;;21.08;71.99;100713.38;5034637;28;20967;-72
2022/09/10 10:38:17;;;;;;;3.33;0.67;;;;;;;21.21;72.77;100708.47;5034946;28;20430;-71
2022/09/10 10:40:50;;;;;;;3.00;0.60;;;;;;;21.44;69.36;100711.19;5034580;28;20460;-72
2022/09/10 10:43:31;;;;;;;3.53;0.70;;;;;;;21.47;70.08;100702.97;5034761;28;20420;-70
2022/09/10 10:46:03;;;;;;;3.10;0.80;;;;;;;21.47;69.25;100708.50;5034952;28;20435;-70
2022/09/10 10:48:41;;;;;;;3.60;0.90;;;;;;;21.51;69.96;100703.00;5035016;28;20430;-72
2022/09/10 10:51:13;;;;;;;3.67;0.70;;;;;;;21.71;68.68;100701.72;5034551;28;20541;-72
2022/09/10 10:53:55;;;;;;;4.03;0.80;;;;;;;21.73;66.18;100704.88;5034648;28;20576;-71
2022/09/10 10:56:29;;;;;;;2.70;0.50;;;;;;;21.70;66.56;100704.84;5034402;28;20783;-71
2022/09/10 10:59:11;;;;;;;3.20;0.80;;;;;;;21.78;66.44;100701.00;5034647;28;20446;-71
2022/09/10 11:01:44;;;;;;;3.20;0.60;;;;;;;21.90;67.01;100693.28;5034135;28;20883;-70
2022/09/10 11:04:24;;;;;;;4.90;1.23;;;;;;;22.29;67.53;100704.03;5033760;28;20883;-70
2022/09/10 11:06:56;;;;;;;2.87;0.60;;;;;;;22.61;64.76;100701.56;5034073;28;20928;-72
2022/09/10 11:09:27;;;;;;;4.33;0.90;;;;;;;22.80;63.86;100703.34;5034144;28;20909;-71
2022/09/10 11:11:58;;;;;;;4.70;1.00;;;;;;;22.72;62.42;100698.94;5034436;28;20462;-71
2022/09/10 11:14:31;;;;;;;3.73;0.83;;;;;;;22.57;64.69;100702.72;5034243;28;20489;-70
2022/09/10 11:17:04;;;;;;;3.47;0.73;;;;;;;23.09;62.91;100712.69;5034296;28;20431;-70
2022/09/10 11:19:36;;;;;;;3.37;0.87;;;;;;;22.99;60.97;100710.63;5034174;28;20427;-69
2022/09/10 11:22:12;;;;;;;3.20;0.80;;;;;;;23.59;59.70;100712.22;5034077;28;20493;-71
2022/09/10 11:24:46;;;;;;;5.10;1.00;;;;;;;25.08;56.61;100714.66;5034093;28;20434;-70
2022/09/10 11:27:16;;;;;;;3.53;0.80;;;;;;;26.57;52.73;100722.91;5033864;28;20422;-71
2022/09/10 11:29:47;;;;;;;2.70;0.50;;;;;;;27.15;48.59;100726.84;5034329;28;20490;-71